Terminal Aerodrome Forecast
Issued by NWS

Home | Current Version | Previous Version | Text Only | Print | Product List | Glossary On
Versions: 1 2 3 4 5 6 7 8 9 10 11 12 13 14 15 16 17 18 19 20 21 22 23 24 25 26 27 28 29 30 31 32 33 34 35 36
000
FTUS43 KILX 220536
TAFCMI
TAF
KCMI 220536Z 2206/2306 05015KT P6SM FEW010 BKN050
     FM220700 05014KT P6SM VCSH OVC035
     FM221100 05012KT P6SM -FZRASN OVC015
     FM221400 05012KT P6SM -RA OVC010
     FM221800 08008KT P6SM OVC025
     FM230500 09012KT P6SM -RA OVC025=

USA.gov is the U.S. government's official web portal to all federal, state and local government web resources and services.